Terminal Aerodrome Forecast
Issued by NWS

Home | Current Version | Previous Version | Text Only | Print | Product List | Glossary On
Versions: 1 2 3 4 5 6 7 8 9 10 11 12 13 14 15 16 17 18
445
FTUS41 KCAR 191556 AAC
TAFBHB
TAF AMD
KBHB 191556Z 1916/2012 01003KT 5SM -SN BR BKN004 OVC025
     FM191700 20005KT P6SM BKN015
     FM191900 26004KT P6SM BKN035
     FM200200 32004KT P6SM SCT050 BKN090=

USA.gov is the U.S. government's official web portal to all federal, state and local government web resources and services.